createdAt,value
2019-03-28T00:00:16.998Z,100761.72
2019-03-28T00:02:48.637Z,100755.60
2019-03-28T00:05:18.648Z,100758.70
2019-03-28T00:07:49.054Z,100755.50
2019-03-28T00:10:19.432Z,100754.08
2019-03-28T00:12:49.510Z,100751.34
2019-03-28T00:15:19.279Z,100752.08
2019-03-28T00:17:49.583Z,100753.09
2019-03-28T00:20:20.201Z,100752.61
2019-03-28T00:23:08.407Z,100762.27
2019-03-28T00:25:40.049Z,100752.84
2019-03-28T00:28:14.753Z,100752.86
2019-03-28T00:30:44.605Z,100752.80
2019-03-28T00:33:14.872Z,100748.70
2019-03-28T00:35:45.186Z,100749.15
2019-03-28T00:38:15.190Z,100749.34
2019-03-28T00:40:45.226Z,100752.44
2019-03-28T00:43:17.617Z,100749.55
2019-03-28T00:45:48.776Z,100746.89
2019-03-28T00:48:18.781Z,100746.41
2019-03-28T00:50:49.107Z,100745.45
2019-03-28T00:53:18.842Z,100743.01
2019-03-28T00:55:50.190Z,100740.25
2019-03-28T00:58:22.493Z,100729.75
2019-03-28T01:00:55.604Z,100723.11
2019-03-28T01:03:25.333Z,100717.86
2019-03-28T01:05:55.884Z,100717.49
2019-03-28T01:08:26.163Z,100724.45
2019-03-28T01:10:57.135Z,100723.02
2019-03-28T01:13:26.884Z,100726.13
2019-03-28T01:15:57.184Z,100729.05
2019-03-28T01:18:27.303Z,100724.50
2019-03-28T01:20:59.370Z,100723.64
2019-03-28T01:23:34.072Z,100714.56
2019-03-28T01:26:04.423Z,100712.06
2019-03-28T01:28:37.187Z,100711.80
2019-03-28T01:31:08.406Z,100717.97
2019-03-28T01:33:38.961Z,100718.36
2019-03-28T01:36:15.469Z,100716.95
2019-03-28T01:38:46.366Z,100718.25
2019-03-28T01:41:16.406Z,100722.17
2019-03-28T01:43:46.633Z,100719.10
2019-03-28T01:46:18.378Z,100719.91
2019-03-28T01:48:48.960Z,100719.81
2019-03-28T01:51:19.633Z,100716.50
2019-03-28T01:53:57.499Z,100711.59
2019-03-28T01:56:27.662Z,100711.20
2019-03-28T01:58:57.705Z,100707.63
2019-03-28T02:01:30.120Z,100705.42
2019-03-28T02:04:01.102Z,100708.47
2019-03-28T02:06:33.171Z,100709.49
2019-03-28T02:09:06.119Z,100707.44
2019-03-28T02:11:37.272Z,100704.30
2019-03-28T02:14:08.557Z,100703.94
2019-03-28T02:16:39.118Z,100707.13
2019-03-28T02:19:09.315Z,100711.95
2019-03-28T02:21:39.444Z,100706.92
2019-03-28T02:24:09.421Z,100707.34
2019-03-28T02:26:42.330Z,100707.50
2019-03-28T02:29:12.882Z,100714.94
2019-03-28T02:31:47.926Z,100715.63
2019-03-28T02:34:18.455Z,100720.43
2019-03-28T02:36:48.768Z,100724.00
2019-03-28T02:39:19.015Z,100726.62
2019-03-28T02:41:49.951Z,100728.68
2019-03-28T02:44:19.698Z,100723.38
2019-03-28T02:46:51.074Z,100718.53
2019-03-28T02:49:21.978Z,100722.09
2019-03-28T02:51:53.130Z,100716.75
2019-03-28T02:54:26.818Z,100715.14
2019-03-28T02:56:57.431Z,100715.14
2019-03-28T02:59:29.008Z,100717.34
2019-03-28T03:02:01.107Z,100725.77
2019-03-28T03:04:34.756Z,100718.87
2019-03-28T03:07:06.076Z,100721.27
2019-03-28T03:09:37.219Z,100725.11
2019-03-28T03:12:09.062Z,100725.89
2019-03-28T03:14:39.849Z,100725.53
2019-03-28T03:17:10.221Z,100723.78
2019-03-28T03:19:46.039Z,100722.56
2019-03-28T03:22:16.047Z,100726.01
2019-03-28T03:24:46.458Z,100719.39
2019-03-28T03:27:16.189Z,100724.25
2019-03-28T03:29:46.537Z,100723.83
2019-03-28T03:32:17.233Z,100729.08
2019-03-28T03:34:48.831Z,100727.81
2019-03-28T03:37:20.564Z,100727.34
2019-03-28T03:39:50.874Z,100725.98
2019-03-28T03:42:23.585Z,100725.95
2019-03-28T03:44:54.477Z,100726.28
2019-03-28T03:47:25.226Z,100727.54
2019-03-28T03:49:56.761Z,100729.32
2019-03-28T03:52:27.529Z,100724.17
2019-03-28T03:55:01.741Z,100723.27
2019-03-28T03:57:33.030Z,100727.98
2019-03-28T04:00:06.616Z,100731.43
2019-03-28T04:02:38.892Z,100728.84
2019-03-28T04:05:09.291Z,100730.14
2019-03-28T04:07:39.375Z,100734.92
2019-03-28T04:10:10.602Z,100741.48
2019-03-28T04:12:44.353Z,100742.06
2019-03-28T04:15:18.932Z,100738.80
2019-03-28T04:17:49.771Z,100743.21
2019-03-28T04:20:28.604Z,100742.77
2019-03-28T04:23:01.383Z,100746.33
2019-03-28T04:25:40.330Z,100745.31
2019-03-28T04:28:24.797Z,100753.20
2019-03-28T04:30:49.660Z,100756.30
2019-03-28T04:33:21.142Z,100758.11
2019-03-28T04:35:52.740Z,100755.75
2019-03-28T04:38:24.557Z,100769.61
2019-03-28T04:40:55.651Z,100770.52
2019-03-28T04:43:25.680Z,100772.61
2019-03-28T04:45:58.808Z,100773.85
2019-03-28T04:48:30.894Z,100775.63
2019-03-28T04:51:21.147Z,100773.44
2019-03-28T04:53:51.715Z,100774.20
2019-03-28T04:56:23.024Z,100771.57
2019-03-28T04:58:55.360Z,100781.66
2019-03-28T05:01:26.523Z,100778.60
2019-03-28T05:03:56.881Z,100779.03
2019-03-28T05:06:28.254Z,100780.34
2019-03-28T05:08:59.881Z,100780.66
2019-03-28T05:11:30.284Z,100781.83
2019-03-28T05:14:00.389Z,100783.11
2019-03-28T05:16:30.809Z,100788.36
2019-03-28T05:19:02.938Z,100789.35
2019-03-28T05:21:36.338Z,100794.50
2019-03-28T05:24:06.606Z,100794.50
2019-03-28T05:26:37.216Z,100797.58
2019-03-28T05:29:07.522Z,100790.25
2019-03-28T05:31:37.284Z,100802.45
2019-03-28T05:34:09.196Z,100800.61
2019-03-28T05:36:41.526Z,100802.33
2019-03-28T05:39:12.156Z,100807.58
2019-03-28T05:41:42.091Z,100805.30
2019-03-28T05:44:12.785Z,100807.45
2019-03-28T05:46:43.383Z,100810.84
2019-03-28T05:49:15.696Z,100813.22
2019-03-28T05:51:45.497Z,100810.52
2019-03-28T05:54:15.206Z,100815.79
2019-03-28T05:56:44.969Z,100815.35
2019-03-28T05:59:15.946Z,100817.09
2019-03-28T06:01:48.697Z,100823.09
2019-03-28T06:04:23.629Z,100822.88
2019-03-28T06:06:54.033Z,100818.00
2019-03-28T06:09:24.050Z,100818.42
2019-03-28T06:11:54.880Z,100816.53
2019-03-28T06:14:24.641Z,100819.53
2019-03-28T06:16:55.042Z,100820.42
2019-03-28T06:19:26.299Z,100817.72
2019-03-28T06:21:56.053Z,100820.23
2019-03-28T06:24:26.052Z,100825.89
2019-03-28T06:26:56.624Z,100821.86
2019-03-28T06:29:26.619Z,100827.51
2019-03-28T06:31:56.364Z,100827.87
2019-03-28T06:34:26.545Z,100829.09
2019-03-28T06:36:56.371Z,100830.44
2019-03-28T06:39:26.123Z,100834.72
2019-03-28T06:41:55.893Z,100833.70
2019-03-28T06:44:26.019Z,100838.09
2019-03-28T06:46:55.730Z,100835.83
2019-03-28T06:49:27.101Z,100831.80
2019-03-28T06:51:56.862Z,100833.59
2019-03-28T06:54:26.599Z,100829.87
2019-03-28T06:56:58.409Z,100830.72
2019-03-28T06:59:37.146Z,100831.39
2019-03-28T07:01:59.966Z,100829.69
2019-03-28T07:04:30.323Z,100830.47
2019-03-28T07:07:00.527Z,100829.05
2019-03-28T07:09:31.192Z,100829.23
2019-03-28T07:12:00.920Z,100827.75
2019-03-28T07:14:30.678Z,100820.52
2019-03-28T07:17:00.683Z,100820.03
2019-03-28T07:19:33.269Z,100816.91
2019-03-28T07:22:03.863Z,100818.98
2019-03-28T07:24:35.534Z,100817.03
2019-03-28T07:27:08.759Z,100812.98
2019-03-28T07:29:50.628Z,100814.30
2019-03-28T07:32:14.550Z,100813.69
2019-03-28T07:34:44.694Z,100811.44
2019-03-28T07:37:15.053Z,100810.19
2019-03-28T07:39:45.100Z,100811.32
2019-03-28T07:42:15.212Z,100815.34
2019-03-28T07:44:47.891Z,100803.59
2019-03-28T07:47:18.392Z,100805.12
2019-03-28T07:49:48.787Z,100813.56
2019-03-28T07:52:20.190Z,100809.45
2019-03-28T07:54:51.431Z,100807.80
2019-03-28T07:57:23.371Z,100808.98
2019-03-28T08:00:03.994Z,100809.81
2019-03-28T08:02:29.498Z,100802.73
2019-03-28T08:05:02.275Z,100801.60
2019-03-28T08:07:44.354Z,100800.30
2019-03-28T08:10:04.990Z,100797.70
2019-03-28T08:12:37.611Z,100798.02
2019-03-28T08:15:08.546Z,100797.61
2019-03-28T08:17:39.409Z,100800.09
2019-03-28T08:20:29.443Z,100795.64
2019-03-28T08:23:01.323Z,100795.75
2019-03-28T08:25:31.891Z,100806.20
2019-03-28T08:28:09.922Z,100804.91
2019-03-28T08:30:45.165Z,100814.55
2019-03-28T08:33:14.013Z,100823.89
2019-03-28T08:35:45.030Z,100828.27
2019-03-28T08:38:16.593Z,100825.95
2019-03-28T08:40:47.519Z,100818.23
2019-03-28T08:43:18.045Z,100826.69
2019-03-28T08:45:49.523Z,100817.97
2019-03-28T08:48:19.249Z,100824.52
2019-03-28T08:50:49.938Z,100820.80
2019-03-28T08:53:20.518Z,100823.55
2019-03-28T08:55:52.465Z,100822.41
2019-03-28T08:58:24.243Z,100823.58
2019-03-28T09:00:57.154Z,100816.30
2019-03-28T09:03:27.707Z,100810.91
2019-03-28T09:05:57.750Z,100814.16
2019-03-28T09:08:28.331Z,100809.33
2019-03-28T09:10:59.538Z,100819.26
2019-03-28T09:13:30.055Z,100820.90
2019-03-28T09:16:00.970Z,100822.41
2019-03-28T09:18:31.962Z,100819.30
2019-03-28T09:21:03.191Z,100827.70
2019-03-28T09:23:34.236Z,100824.94
2019-03-28T09:26:04.994Z,100829.03
2019-03-28T09:28:35.481Z,100821.42
2019-03-28T09:31:19.327Z,100827.98
2019-03-28T09:33:44.761Z,100825.18
2019-03-28T09:36:15.011Z,100823.48
2019-03-28T09:38:45.264Z,100823.16
2019-03-28T09:41:15.547Z,100825.38
2019-03-28T09:43:55.068Z,100816.13
2019-03-28T09:46:20.722Z,100816.98
2019-03-28T09:48:50.298Z,100813.86
2019-03-28T09:51:20.930Z,100816.66
2019-03-28T09:53:53.993Z,100813.61
2019-03-28T09:56:24.355Z,100820.32
2019-03-28T09:58:56.226Z,100819.59
2019-03-28T10:01:26.880Z,100816.13
2019-03-28T10:03:59.144Z,100816.06
2019-03-28T10:06:29.417Z,100810.08
2019-03-28T10:09:00.072Z,100813.27
2019-03-28T10:11:30.106Z,100809.05
2019-03-28T10:13:59.713Z,100809.63
2019-03-28T10:16:29.509Z,100808.82
2019-03-28T10:19:00.120Z,100805.81
2019-03-28T10:21:30.053Z,100802.91
2019-03-28T10:24:01.316Z,100799.86
2019-03-28T10:26:31.332Z,100799.91
2019-03-28T10:29:01.338Z,100794.47
2019-03-28T10:31:31.312Z,100790.87
2019-03-28T10:34:01.579Z,100790.80
2019-03-28T10:36:32.174Z,100791.73
2019-03-28T10:39:23.582Z,100788.52
2019-03-28T10:41:54.734Z,100791.12
2019-03-28T10:44:28.440Z,100787.34
2019-03-28T10:46:59.927Z,100787.59
2019-03-28T10:49:30.440Z,100790.35
2019-03-28T10:52:04.046Z,100792.56
2019-03-28T10:54:33.727Z,100789.56
2019-03-28T10:57:13.558Z,100787.33
2019-03-28T10:59:34.943Z,100783.26
2019-03-28T11:02:05.153Z,100781.16
2019-03-28T11:04:34.899Z,100781.45
2019-03-28T11:07:04.762Z,100792.76
2019-03-28T11:09:34.875Z,100802.59
2019-03-28T11:12:05.109Z,100790.39
2019-03-28T11:14:34.828Z,100791.14
2019-03-28T11:17:04.586Z,100780.30
2019-03-28T11:19:34.319Z,100772.12
2019-03-28T11:22:05.180Z,100774.88
2019-03-28T11:24:39.535Z,100774.67
2019-03-28T11:27:09.553Z,100763.19
2019-03-28T11:29:40.617Z,100765.30
2019-03-28T11:32:10.445Z,100763.94
2019-03-28T11:34:41.079Z,100763.86
2019-03-28T11:37:25.311Z,100762.28
2019-03-28T11:39:46.711Z,100761.52
2019-03-28T11:42:17.572Z,100765.47
2019-03-28T11:44:47.686Z,100766.01
2019-03-28T11:47:22.374Z,100764.92
2019-03-28T11:49:53.719Z,100764.09
2019-03-28T11:52:24.670Z,100760.45
2019-03-28T11:54:54.871Z,100766.66
2019-03-28T11:57:26.115Z,100757.78
2019-03-28T11:59:57.963Z,100758.33
2019-03-28T12:02:28.417Z,100754.89
2019-03-28T12:04:58.481Z,100757.50
2019-03-28T12:07:29.405Z,100754.98
2019-03-28T12:09:59.941Z,100754.06
2019-03-28T12:12:29.810Z,100754.13
2019-03-28T12:15:00.394Z,100756.80
2019-03-28T12:17:31.343Z,100743.30
2019-03-28T12:20:05.148Z,100742.64
2019-03-28T12:22:37.106Z,100743.59
2019-03-28T12:25:09.176Z,100743.80
2019-03-28T12:27:40.141Z,100740.66
2019-03-28T12:30:11.328Z,100742.25
2019-03-28T12:32:44.183Z,100744.61
2019-03-28T12:35:18.841Z,100737.03
2019-03-28T12:37:49.883Z,100737.72
2019-03-28T12:40:20.379Z,100737.94
2019-03-28T12:42:54.799Z,100731.41
2019-03-28T12:45:29.185Z,100728.97
2019-03-28T12:48:01.276Z,100731.87
2019-03-28T12:50:31.082Z,100727.19
2019-03-28T12:53:01.633Z,100726.19
2019-03-28T12:55:33.908Z,100728.86
2019-03-28T12:58:06.130Z,100723.46
2019-03-28T13:00:39.278Z,100723.64
2019-03-28T13:03:10.392Z,100719.59
2019-03-28T13:05:42.264Z,100721.28
2019-03-28T13:08:12.472Z,100733.00
2019-03-28T13:10:44.764Z,100735.78
2019-03-28T13:13:15.614Z,100726.03
2019-03-28T13:15:45.491Z,100720.56
2019-03-28T13:18:18.530Z,100728.01
2019-03-28T13:20:48.910Z,100719.84
2019-03-28T13:23:45.151Z,100723.16
2019-03-28T13:26:16.462Z,100721.48
2019-03-28T13:28:52.549Z,100720.45
2019-03-28T13:31:25.204Z,100720.10
2019-03-28T13:33:57.641Z,100719.22
2019-03-28T13:36:29.368Z,100724.52
2019-03-28T13:39:06.615Z,100719.33
2019-03-28T13:41:38.774Z,100720.01
2019-03-28T13:44:12.225Z,100719.69
2019-03-28T13:46:43.020Z,100724.45
2019-03-28T13:49:15.772Z,100721.14
2019-03-28T13:51:45.919Z,100718.96
2019-03-28T13:54:23.284Z,100714.52
2019-03-28T13:56:53.341Z,100718.10
2019-03-28T13:59:24.376Z,100719.00
2019-03-28T14:01:56.761Z,100712.67
2019-03-28T14:04:30.885Z,100712.81
2019-03-28T14:07:02.158Z,100710.76
2019-03-28T14:09:32.334Z,100710.53
2019-03-28T14:12:02.068Z,100710.14
2019-03-28T14:14:35.112Z,100708.31
2019-03-28T14:17:05.130Z,100706.38
2019-03-28T14:19:36.162Z,100707.95
2019-03-28T14:22:06.614Z,100703.42
2019-03-28T14:24:36.414Z,100710.66
2019-03-28T14:27:06.451Z,100703.94
2019-03-28T14:29:38.002Z,100708.58
2019-03-28T14:32:20.903Z,100700.74
2019-03-28T14:34:50.829Z,100700.52
2019-03-28T14:37:21.302Z,100699.66
2019-03-28T14:39:51.808Z,100695.50
2019-03-28T14:42:22.367Z,100698.47
2019-03-28T14:44:53.019Z,100704.23
2019-03-28T14:47:25.689Z,100697.05
2019-03-28T14:49:57.196Z,100696.33
2019-03-28T14:52:26.976Z,100694.74
2019-03-28T14:54:56.711Z,100697.73
2019-03-28T14:57:28.113Z,100690.89
2019-03-28T14:59:59.995Z,100693.94
2019-03-28T15:02:30.095Z,100689.07
2019-03-28T15:05:01.380Z,100684.88
2019-03-28T15:07:31.828Z,100684.59
2019-03-28T15:10:02.065Z,100683.20
2019-03-28T15:12:33.468Z,100684.81
2019-03-28T15:15:03.212Z,100688.98
2019-03-28T15:17:34.632Z,100682.16
2019-03-28T15:20:05.107Z,100677.77
2019-03-28T15:22:35.252Z,100685.88
2019-03-28T15:25:06.984Z,100672.17
2019-03-28T15:27:36.772Z,100673.86
2019-03-28T15:30:07.525Z,100676.87
2019-03-28T15:32:37.500Z,100671.00
2019-03-28T15:35:07.829Z,100670.27
2019-03-28T15:37:37.581Z,100675.44
2019-03-28T15:40:08.425Z,100666.44
2019-03-28T15:42:39.501Z,100671.51
2019-03-28T15:45:09.980Z,100679.03
2019-03-28T15:47:40.003Z,100681.22
2019-03-28T15:50:10.939Z,100676.08
2019-03-28T15:52:41.533Z,100677.69
2019-03-28T15:55:14.450Z,100684.64
2019-03-28T15:57:42.726Z,100684.63
2019-03-28T16:00:12.679Z,100688.52
2019-03-28T16:02:42.401Z,100689.25
2019-03-28T16:05:12.449Z,100683.82
2019-03-28T16:07:42.211Z,100689.96
2019-03-28T16:10:14.698Z,100688.00
2019-03-28T16:12:44.283Z,100683.71
2019-03-28T16:15:16.050Z,100682.44
2019-03-28T16:17:48.046Z,100688.92
2019-03-28T16:20:17.810Z,100690.05
2019-03-28T16:22:50.399Z,100687.91
2019-03-28T16:25:21.678Z,100691.33
2019-03-28T16:27:53.879Z,100690.77
2019-03-28T16:30:48.476Z,100692.67
2019-03-28T16:33:18.612Z,100704.41
2019-03-28T16:35:48.583Z,100699.16
2019-03-28T16:38:19.631Z,100702.30
2019-03-28T16:40:50.503Z,100700.27
2019-03-28T16:43:20.245Z,100705.99
2019-03-28T16:45:50.022Z,100704.48
2019-03-28T16:48:20.598Z,100695.51
2019-03-28T16:50:50.639Z,100701.52
2019-03-28T16:53:20.421Z,100695.59
2019-03-28T16:55:50.772Z,100701.69
2019-03-28T16:58:22.030Z,100693.06
2019-03-28T17:00:52.330Z,100700.05
2019-03-28T17:03:22.520Z,100696.45
2019-03-28T17:05:52.803Z,100698.31
2019-03-28T17:08:23.768Z,100697.30
2019-03-28T17:10:57.830Z,100706.92
2019-03-28T17:13:30.470Z,100699.78
2019-03-28T17:16:00.926Z,100701.15
2019-03-28T17:18:31.400Z,100701.16
2019-03-28T17:21:01.492Z,100702.91
2019-03-28T17:23:32.172Z,100709.03
2019-03-28T17:26:01.958Z,100708.82
2019-03-28T17:28:33.979Z,100710.73
2019-03-28T17:31:03.787Z,100714.28
2019-03-28T17:33:37.882Z,100716.62
2019-03-28T17:36:10.802Z,100718.63
2019-03-28T17:38:40.630Z,100720.34
2019-03-28T17:41:10.400Z,100725.06
2019-03-28T17:43:40.200Z,100727.92
2019-03-28T17:46:12.441Z,100732.77
2019-03-28T17:48:42.852Z,100731.59
2019-03-28T17:51:13.731Z,100734.86
2019-03-28T17:53:43.824Z,100733.44
2019-03-28T17:56:15.011Z,100740.48
2019-03-28T17:58:44.897Z,100739.22
2019-03-28T18:01:16.145Z,100737.33
2019-03-28T18:03:46.940Z,100741.83
2019-03-28T18:06:17.208Z,100747.86
2019-03-28T18:08:57.109Z,100750.07
2019-03-28T18:11:29.613Z,100750.81
2019-03-28T18:13:59.779Z,100750.69
2019-03-28T18:16:29.627Z,100749.48
2019-03-28T18:18:59.613Z,100748.75
2019-03-28T18:21:38.083Z,100751.25
2019-03-28T18:24:08.011Z,100749.08
2019-03-28T18:26:37.777Z,100753.37
2019-03-28T18:29:07.490Z,100750.04
2019-03-28T18:31:49.641Z,100760.65
2019-03-28T18:34:12.567Z,100764.98
2019-03-28T18:36:42.373Z,100769.70
2019-03-28T18:39:12.147Z,100770.91
2019-03-28T18:41:43.933Z,100767.98
2019-03-28T18:44:14.362Z,100771.10
2019-03-28T18:46:46.442Z,100770.56
2019-03-28T18:49:16.812Z,100773.76
2019-03-28T18:51:47.037Z,100763.73
2019-03-28T18:54:20.220Z,100770.11
2019-03-28T18:56:50.097Z,100769.12
2019-03-28T18:59:19.799Z,100774.42
2019-03-28T19:01:51.390Z,100773.78
2019-03-28T19:04:21.464Z,100770.05
2019-03-28T19:06:51.287Z,100774.69
2019-03-28T19:09:21.860Z,100772.03
2019-03-28T19:11:53.746Z,100770.56
2019-03-28T19:14:23.711Z,100770.38
2019-03-28T19:16:53.481Z,100769.80
2019-03-28T19:19:23.564Z,100773.46
2019-03-28T19:21:55.846Z,100776.58
2019-03-28T19:24:25.120Z,100779.56
2019-03-28T19:26:55.041Z,100780.63
2019-03-28T19:29:26.758Z,100781.56
2019-03-28T19:31:57.927Z,100788.06
2019-03-28T19:34:27.767Z,100780.00
2019-03-28T19:36:57.942Z,100780.33
2019-03-28T19:39:32.154Z,100778.05
2019-03-28T19:42:04.561Z,100773.20
2019-03-28T19:44:33.372Z,100776.53
2019-03-28T19:47:03.380Z,100772.28
2019-03-28T19:49:33.151Z,100773.59
2019-03-28T19:52:02.900Z,100770.28
2019-03-28T19:54:33.885Z,100769.81
2019-03-28T19:57:03.870Z,100768.09
2019-03-28T19:59:37.277Z,100760.13
2019-03-28T20:02:08.084Z,100760.59
2019-03-28T20:04:43.030Z,100756.70
2019-03-28T20:07:21.526Z,100763.18
2019-03-28T20:09:46.379Z,100758.83
2019-03-28T20:12:16.446Z,100763.13
2019-03-28T20:14:47.202Z,100762.20
2019-03-28T20:17:18.791Z,100765.23
2019-03-28T20:19:48.555Z,100765.53
2019-03-28T20:22:18.566Z,100766.65
2019-03-28T20:24:49.771Z,100769.13
2019-03-28T20:27:24.575Z,100769.45
2019-03-28T20:29:56.674Z,100767.12
2019-03-28T20:32:27.511Z,100766.39
2019-03-28T20:35:01.702Z,100769.52
2019-03-28T20:37:31.619Z,100771.52
2019-03-28T20:40:03.772Z,100765.74
2019-03-28T20:42:34.939Z,100760.25
2019-03-28T20:45:10.816Z,100767.88
2019-03-28T20:47:43.120Z,100763.00
2019-03-28T20:50:17.848Z,100762.06
2019-03-28T20:52:49.694Z,100754.97
2019-03-28T20:55:20.295Z,100753.45
2019-03-28T20:57:51.750Z,100761.47
2019-03-28T21:00:43.250Z,100752.36
2019-03-28T21:03:17.567Z,100758.72
2019-03-28T21:05:48.387Z,100763.23
2019-03-28T21:08:19.280Z,100762.27
2019-03-28T21:10:51.196Z,100760.08
2019-03-28T21:13:21.853Z,100762.00
2019-03-28T21:15:53.859Z,100757.43
2019-03-28T21:18:26.294Z,100750.80
2019-03-28T21:20:57.470Z,100747.38
2019-03-28T21:23:29.658Z,100749.66
2019-03-28T21:26:02.344Z,100742.68
2019-03-28T21:28:46.456Z,100732.73
2019-03-28T21:31:07.336Z,100729.56
2019-03-28T21:33:37.087Z,100733.09
2019-03-28T21:36:08.607Z,100725.23
2019-03-28T21:38:40.376Z,100727.53
2019-03-28T21:41:12.831Z,100725.08
2019-03-28T21:43:42.755Z,100721.83
2019-03-28T21:46:13.733Z,100724.21
2019-03-28T21:48:46.710Z,100724.02
2019-03-28T21:51:18.526Z,100724.73
2019-03-28T21:53:51.971Z,100725.86
2019-03-28T21:56:22.467Z,100728.78
2019-03-28T21:58:53.670Z,100726.55
2019-03-28T22:01:27.335Z,100728.10
2019-03-28T22:04:01.299Z,100731.19
2019-03-28T22:06:42.309Z,100728.25
2019-03-28T22:09:04.144Z,100730.55
2019-03-28T22:11:34.560Z,100729.23
2019-03-28T22:14:04.626Z,100728.77
2019-03-28T22:16:35.078Z,100730.81
2019-03-28T22:19:06.060Z,100732.16
2019-03-28T22:21:36.330Z,100736.48
2019-03-28T22:24:06.182Z,100731.87
2019-03-28T22:26:35.946Z,100734.32
2019-03-28T22:29:06.459Z,100733.69
2019-03-28T22:31:36.238Z,100731.70
2019-03-28T22:34:06.021Z,100727.22
2019-03-28T22:36:35.829Z,100724.83
2019-03-28T22:39:08.177Z,100726.24
2019-03-28T22:41:38.462Z,100730.64
2019-03-28T22:44:14.197Z,100726.77
2019-03-28T22:46:42.793Z,100728.14
2019-03-28T22:49:14.182Z,100732.56
2019-03-28T22:51:44.233Z,100732.36
2019-03-28T22:54:14.249Z,100733.43
2019-03-28T22:56:44.199Z,100729.48
2019-03-28T22:59:14.998Z,100730.75
2019-03-28T23:01:44.899Z,100725.91
2019-03-28T23:04:15.104Z,100726.34
2019-03-28T23:06:45.280Z,100728.15
2019-03-28T23:09:14.989Z,100724.08
2019-03-28T23:11:46.010Z,100731.78
2019-03-28T23:14:15.759Z,100726.27
2019-03-28T23:16:45.894Z,100728.21
2019-03-28T23:19:15.916Z,100726.16
2019-03-28T23:21:45.681Z,100729.67
2019-03-28T23:24:17.836Z,100725.63
2019-03-28T23:26:48.302Z,100723.41
2019-03-28T23:29:19.648Z,100727.25
2019-03-28T23:31:50.831Z,100727.65
2019-03-28T23:34:21.182Z,100723.77
2019-03-28T23:36:51.745Z,100727.94
2019-03-28T23:39:22.634Z,100722.60
2019-03-28T23:41:54.078Z,100717.96
2019-03-28T23:44:23.840Z,100714.86
2019-03-28T23:46:53.953Z,100723.62
2019-03-28T23:49:23.701Z,100724.09
2019-03-28T23:51:54.601Z,100716.80
2019-03-28T23:54:26.814Z,100721.17
2019-03-28T23:56:57.199Z,100725.08
2019-03-28T23:59:28.440Z,100726.56
